sensor_id;sensor_type;location;lat;lon;timestamp;pressure;altitude;pressure_sealevel;temperature;humidity
70976;BME280;58635;51.198;6.010;2023-02-13T00:04:34;103482.38;;;9.07;61.43
70976;BME280;58635;51.198;6.010;2023-02-13T00:07:00;103497.16;;;9.16;61.33
70976;BME280;58635;51.198;6.010;2023-02-13T00:09:26;103499.88;;;9.15;61.34
70976;BME280;58635;51.198;6.010;2023-02-13T00:11:52;103489.06;;;9.09;61.33
70976;BME280;58635;51.198;6.010;2023-02-13T00:14:18;103487.91;;;9.02;61.48
70976;BME280;58635;51.198;6.010;2023-02-13T00:16:43;103495.41;;;9.05;61.39
70976;BME280;58635;51.198;6.010;2023-02-13T00:19:08;103497.03;;;9.06;61.77
70976;BME280;58635;51.198;6.010;2023-02-13T00:21:34;103482.25;;;8.97;61.90
70976;BME280;58635;51.198;6.010;2023-02-13T00:23:59;103501.03;;;9.11;61.96
70976;BME280;58635;51.198;6.010;2023-02-13T00:26:25;103492.25;;;9.13;62.16
70976;BME280;58635;51.198;6.010;2023-02-13T00:28:50;103488.84;;;9.13;62.37
70976;BME280;58635;51.198;6.010;2023-02-13T00:31:17;103484.72;;;9.10;62.43
70976;BME280;58635;51.198;6.010;2023-02-13T00:33:44;103482.25;;;9.08;62.36
70976;BME280;58635;51.198;6.010;2023-02-13T00:36:12;103482.84;;;9.12;62.73
70976;BME280;58635;51.198;6.010;2023-02-13T00:38:39;103481.19;;;9.11;62.67
70976;BME280;58635;51.198;6.010;2023-02-13T00:41:09;103474.28;;;9.12;62.98
70976;BME280;58635;51.198;6.010;2023-02-13T00:43:35;103476.03;;;9.11;62.44
70976;BME280;58635;51.198;6.010;2023-02-13T00:46:01;103477.78;;;9.11;62.91
70976;BME280;58635;51.198;6.010;2023-02-13T00:48:29;103476.97;;;9.10;62.64
70976;BME280;58635;51.198;6.010;2023-02-13T00:50:55;103475.44;;;9.07;62.66
70976;BME280;58635;51.198;6.010;2023-02-13T00:53:22;103477.78;;;9.11;62.91
70976;BME280;58635;51.198;6.010;2023-02-13T00:55:51;103481.56;;;9.06;62.74
70976;BME280;58635;51.198;6.010;2023-02-13T00:58:17;103475.69;;;9.04;62.79
70976;BME280;58635;51.198;6.010;2023-02-13T01:00:44;103471.59;;;9.02;62.90
70976;BME280;58635;51.198;6.010;2023-02-13T01:03:15;103477.34;;;9.05;62.92
70976;BME280;58635;51.198;6.010;2023-02-13T01:05:41;103468.88;;;9.03;62.82
70976;BME280;58635;51.198;6.010;2023-02-13T01:08:08;103465.47;;;9.03;62.97
70976;BME280;58635;51.198;6.010;2023-02-13T01:10:34;103473.94;;;9.05;62.83
70976;BME280;58635;51.198;6.010;2023-02-13T01:13:04;103465.13;;;8.96;62.75
70976;BME280;58635;51.198;6.010;2023-02-13T01:15:30;103461.25;;;9.02;62.93
70976;BME280;58635;51.198;6.010;2023-02-13T01:17:56;103458.88;;;8.99;62.76
70976;BME280;58635;51.198;6.010;2023-02-13T01:20:23;103463.22;;;8.98;62.83
70976;BME280;58635;51.198;6.010;2023-02-13T01:22:49;103461.59;;;8.97;62.60
70976;BME280;58635;51.198;6.010;2023-02-13T01:25:14;103463.34;;;8.97;62.76
70976;BME280;58635;51.198;6.010;2023-02-13T01:27:43;103460.91;;;8.95;62.56
70976;BME280;58635;51.198;6.010;2023-02-13T01:30:19;103452.81;;;8.89;62.36
70976;BME280;58635;51.198;6.010;2023-02-13T01:33:00;103459.13;;;8.85;62.48
70976;BME280;58635;51.198;6.010;2023-02-13T01:35:34;103446.09;;;8.86;62.32
70976;BME280;58635;51.198;6.010;2023-02-13T01:38:11;103435.91;;;8.85;61.88
70976;BME280;58635;51.198;6.010;2023-02-13T01:40:59;103431.69;;;8.84;62.01
70976;BME280;58635;51.198;6.010;2023-02-13T01:43:59;103470.28;;;8.96;61.81
70976;BME280;58635;51.198;6.010;2023-02-13T01:46:33;103475.31;;;8.98;61.71
70976;BME280;58635;51.198;6.010;2023-02-13T01:49:23;103452.81;;;8.77;61.64
70976;BME280;58635;51.198;6.010;2023-02-13T01:52:13;103447.38;;;8.69;61.51
70976;BME280;58635;51.198;6.010;2023-02-13T01:54:40;103481.28;;;8.87;61.64
70976;BME280;58635;51.198;6.010;2023-02-13T01:57:46;103464.28;;;8.73;61.62
70976;BME280;58635;51.198;6.010;2023-02-13T02:00:37;103463.09;;;8.66;61.48
70976;BME280;58635;51.198;6.010;2023-02-13T02:06:41;103480.69;;;8.72;61.38
70976;BME280;58635;51.198;6.010;2023-02-13T02:09:36;103478.72;;;8.65;61.37
70976;BME280;58635;51.198;6.010;2023-02-13T02:12:36;103473.75;;;8.62;61.23
70976;BME280;58635;51.198;6.010;2023-02-13T02:15:05;103470.34;;;8.61;61.13
70976;BME280;58635;51.198;6.010;2023-02-13T02:17:31;103462.03;;;8.58;61.21
70976;BME280;58635;51.198;6.010;2023-02-13T02:20:25;103462.97;;;8.57;61.17
70976;BME280;58635;51.198;6.010;2023-02-13T02:39:35;103452.09;;;8.29;61.23
70976;BME280;58635;51.198;6.010;2023-02-13T02:42:27;103461.34;;;8.32;61.16
70976;BME280;58635;51.198;6.010;2023-02-13T02:50:28;103455.69;;;8.27;61.42
70976;BME280;58635;51.198;6.010;2023-02-13T02:55:57;103458.88;;;8.30;61.18
70976;BME280;58635;51.198;6.010;2023-02-13T02:58:32;103458.66;;;8.33;61.64
70976;BME280;58635;51.198;6.010;2023-02-13T03:01:22;103456.09;;;8.33;61.96
70976;BME280;58635;51.198;6.010;2023-02-13T03:07:24;103447.31;;;8.36;62.15
70976;BME280;58635;51.198;6.010;2023-02-13T03:09:55;103450.28;;;8.42;62.34
70976;BME280;58635;51.198;6.010;2023-02-13T03:12:45;103453.31;;;8.47;62.48
70976;BME280;58635;51.198;6.010;2023-02-13T03:15:32;103457.44;;;8.50;62.74
70976;BME280;58635;51.198;6.010;2023-02-13T03:17:59;103451.25;;;8.53;62.46
70976;BME280;58635;51.198;6.010;2023-02-13T03:21:07;103446.09;;;8.53;62.87
70976;BME280;58635;51.198;6.010;2023-02-13T03:27:03;103452.66;;;8.57;62.70
70976;BME280;58635;51.198;6.010;2023-02-13T03:29:45;103454.28;;;8.58;62.67
70976;BME280;58635;51.198;6.010;2023-02-13T03:35:33;103462.16;;;8.56;62.67
70976;BME280;58635;51.198;6.010;2023-02-13T03:38:25;103455.91;;;8.47;62.79
70976;BME280;58635;51.198;6.010;2023-02-13T03:41:17;103457.66;;;8.47;62.68
70976;BME280;58635;51.198;6.010;2023-02-13T03:46:20;103460.38;;;8.45;62.72
70976;BME280;58635;51.198;6.010;2023-02-13T03:48:46;103466.09;;;8.49;62.71
70976;BME280;58635;51.198;6.010;2023-02-13T03:53:59;103469.75;;;8.46;62.69
70976;BME280;58635;51.198;6.010;2023-02-13T03:56:28;103474.06;;;8.46;62.59
70976;BME280;58635;51.198;6.010;2023-02-13T03:59:23;103465.88;;;8.41;62.66
70976;BME280;58635;51.198;6.010;2023-02-13T04:02:00;103467.72;;;8.39;62.63
70976;BME280;58635;51.198;6.010;2023-02-13T04:04:58;103473.81;;;8.38;62.48
70976;BME280;58635;51.198;6.010;2023-02-13T04:07:21;103471.66;;;8.32;62.44
70976;BME280;58635;51.198;6.010;2023-02-13T04:10:12;103472.91;;;8.26;62.17
70976;BME280;58635;51.198;6.010;2023-02-13T04:15:26;103478.53;;;8.20;62.14
70976;BME280;58635;51.198;6.010;2023-02-13T04:18:28;103486.38;;;8.18;62.00
70976;BME280;58635;51.198;6.010;2023-02-13T04:20:54;103484.25;;;8.12;61.94
70976;BME280;58635;51.198;6.010;2023-02-13T04:23:20;103478.50;;;8.09;62.08
70976;BME280;58635;51.198;6.010;2023-02-13T04:25:48;103477.91;;;8.05;62.07
70976;BME280;58635;51.198;6.010;2023-02-13T04:28:14;103472.84;;;8.04;62.04
70976;BME280;58635;51.198;6.010;2023-02-13T04:30:41;103469.66;;;8.00;61.90
70976;BME280;58635;51.198;6.010;2023-02-13T04:33:06;103480.69;;;8.02;61.78
70976;BME280;58635;51.198;6.010;2023-02-13T04:35:32;103482.44;;;8.02;61.71
70976;BME280;58635;51.198;6.010;2023-02-13T04:37:58;103475.03;;;7.97;62.13
70976;BME280;58635;51.198;6.010;2023-02-13T04:40:23;103470.94;;;7.95;61.72
70976;BME280;58635;51.198;6.010;2023-02-13T04:42:49;103476.09;;;7.95;61.65
70976;BME280;58635;51.198;6.010;2023-02-13T04:45:15;103452.97;;;7.82;61.68
70976;BME280;58635;51.198;6.010;2023-02-13T04:47:40;103470.19;;;7.92;61.88
70976;BME280;58635;51.198;6.010;2023-02-13T04:50:09;103463.53;;;7.90;61.85
70976;BME280;58635;51.198;6.010;2023-02-13T04:52:34;103467.84;;;7.89;61.91
70976;BME280;58635;51.198;6.010;2023-02-13T04:54:59;103455.44;;;7.83;61.85
70976;BME280;58635;51.198;6.010;2023-02-13T04:57:25;103459.53;;;7.86;61.96
70976;BME280;58635;51.198;6.010;2023-02-13T04:59:50;103453.78;;;7.82;61.69
70976;BME280;58635;51.198;6.010;2023-02-13T05:02:16;103452.84;;;7.83;62.20
70976;BME280;58635;51.198;6.010;2023-02-13T05:04:41;103453.44;;;7.87;61.95
70976;BME280;58635;51.198;6.010;2023-02-13T05:07:06;103457.78;;;7.86;62.23
70976;BME280;58635;51.198;6.010;2023-02-13T05:09:32;103449.34;;;7.84;62.22
70976;BME280;58635;51.198;6.010;2023-02-13T05:11:57;103456.00;;;7.87;62.31
70976;BME280;58635;51.198;6.010;2023-02-13T05:14:23;103449.34;;;7.84;62.42
70976;BME280;58635;51.198;6.010;2023-02-13T05:16:48;103452.72;;;7.85;62.35
70976;BME280;58635;51.198;6.010;2023-02-13T05:19:14;103457.88;;;7.85;62.31
70976;BME280;58635;51.198;6.010;2023-02-13T05:21:40;103459.41;;;7.87;62.59
70976;BME280;58635;51.198;6.010;2023-02-13T05:24:24;103460.34;;;7.86;62.56
70976;BME280;58635;51.198;6.010;2023-02-13T05:26:49;103470.44;;;7.89;62.61
70976;BME280;58635;51.198;6.010;2023-02-13T05:29:17;103456.94;;;7.86;62.58
70976;BME280;58635;51.198;6.010;2023-02-13T05:31:46;103465.28;;;7.89;62.46
70976;BME280;58635;51.198;6.010;2023-02-13T05:34:12;103455.44;;;7.83;62.62
70976;BME280;58635;51.198;6.010;2023-02-13T05:36:37;103452.97;;;7.82;62.67
70976;BME280;58635;51.198;6.010;2023-02-13T05:39:04;103452.03;;;7.83;62.66
70976;BME280;58635;51.198;6.010;2023-02-13T05:41:29;103456.13;;;7.85;62.67
70976;BME280;58635;51.198;6.010;2023-02-13T05:43:55;103458.47;;;7.88;62.67
70976;BME280;58635;51.198;6.010;2023-02-13T05:46:20;103459.31;;;7.89;62.67
70976;BME280;58635;51.198;6.010;2023-02-13T05:48:46;103458.38;;;7.90;62.95
70976;BME280;58635;51.198;6.010;2023-02-13T05:51:11;103461.75;;;7.90;62.97
70976;BME280;58635;51.198;6.010;2023-02-13T05:53:37;103460.13;;;7.89;62.93
70976;BME280;58635;51.198;6.010;2023-02-13T05:56:03;103460.94;;;7.90;62.95
70976;BME280;58635;51.198;6.010;2023-02-13T05:58:30;103460.13;;;7.89;62.74
70976;BME280;58635;51.198;6.010;2023-02-13T06:00:56;103454.97;;;7.89;63.04
70976;BME280;58635;51.198;6.010;2023-02-13T06:03:23;103455.09;;;7.88;63.09
70976;BME280;58635;51.198;6.010;2023-02-13T06:05:49;103460.81;;;7.91;63.15
70976;BME280;58635;51.198;6.010;2023-02-13T06:08:15;103450.88;;;7.87;63.13
70976;BME280;58635;51.198;6.010;2023-02-13T06:10:40;103449.69;;;7.91;63.24
70976;BME280;58635;51.198;6.010;2023-02-13T06:13:05;103445.72;;;7.87;63.24
70976;BME280;58635;51.198;6.010;2023-02-13T06:15:31;103446.41;;;7.89;63.12
70976;BME280;58635;51.198;6.010;2023-02-13T06:17:57;103445.59;;;7.88;63.24
70976;BME280;58635;51.198;6.010;2023-02-13T06:20:22;103437.88;;;7.88;63.12
70976;BME280;58635;51.198;6.010;2023-02-13T06:22:51;103435.28;;;7.88;63.31
70976;BME280;58635;51.198;6.010;2023-02-13T06:25:18;103436.34;;;7.86;63.27
70976;BME280;58635;51.198;6.010;2023-02-13T06:27:44;103433.88;;;7.84;63.17
70976;BME280;58635;51.198;6.010;2023-02-13T06:30:10;103437.16;;;7.86;63.42
70976;BME280;58635;51.198;6.010;2023-02-13T06:32:36;103438.81;;;7.87;63.37
70976;BME280;58635;51.198;6.010;2023-02-13T06:35:01;103444.88;;;7.86;63.28
70976;BME280;58635;51.198;6.010;2023-02-13T06:37:26;103448.16;;;7.88;63.35
70976;BME280;58635;51.198;6.010;2023-02-13T06:39:52;103444.88;;;7.86;63.54
70976;BME280;58635;51.198;6.010;2023-02-13T06:42:17;103448.28;;;7.87;63.37
70976;BME280;58635;51.198;6.010;2023-02-13T06:44:43;103444.19;;;7.84;63.23
70976;BME280;58635;51.198;6.010;2023-02-13T06:47:09;103442.31;;;7.86;63.25
70976;BME280;58635;51.198;6.010;2023-02-13T06:49:34;103441.59;;;7.84;63.41
70976;BME280;58635;51.198;6.010;2023-02-13T06:52:00;103439.56;;;7.77;63.19
70976;BME280;58635;51.198;6.010;2023-02-13T06:54:25;103450.47;;;7.80;63.06
70976;BME280;58635;51.198;6.010;2023-02-13T06:56:50;103444.84;;;7.75;63.16
70976;BME280;58635;51.198;6.010;2023-02-13T06:59:16;103463.56;;;7.77;63.19
70976;BME280;58635;51.198;6.010;2023-02-13T07:01:41;103459.59;;;7.73;63.34
70976;BME280;58635;51.198;6.010;2023-02-13T07:04:07;103457.13;;;7.72;62.99
70976;BME280;58635;51.198;6.010;2023-02-13T07:06:32;103463.22;;;7.71;63.24
70976;BME280;58635;51.198;6.010;2023-02-13T07:08:57;103462.56;;;7.67;62.85
70976;BME280;58635;51.198;6.010;2023-02-13T07:11:24;103448.00;;;7.55;62.90
70976;BME280;58635;51.198;6.010;2023-02-13T07:13:49;103461.16;;;7.63;63.01
70976;BME280;58635;51.198;6.010;2023-02-13T07:16:15;103468.78;;;7.65;62.84
70976;BME280;58635;51.198;6.010;2023-02-13T07:18:41;103464.88;;;7.59;62.77
70976;BME280;58635;51.198;6.010;2023-02-13T07:21:07;103478.38;;;7.62;63.11
70976;BME280;58635;51.198;6.010;2023-02-13T07:23:33;103469.00;;;7.61;63.03
70976;BME280;58635;51.198;6.010;2023-02-13T07:25:59;103470.75;;;7.61;62.92
70976;BME280;58635;51.198;6.010;2023-02-13T07:28:25;103467.47;;;7.59;62.92
70976;BME280;58635;51.198;6.010;2023-02-13T07:30:51;103463.25;;;7.58;63.09
70976;BME280;58635;51.198;6.010;2023-02-13T07:33:16;103474.25;;;7.60;62.89
70976;BME280;58635;51.198;6.010;2023-02-13T07:35:49;103472.69;;;7.57;62.91
70976;BME280;58635;51.198;6.010;2023-02-13T07:38:16;103470.03;;;7.59;63.00
70976;BME280;58635;51.198;6.010;2023-02-13T07:40:42;103476.00;;;7.59;62.96
70976;BME280;58635;51.198;6.010;2023-02-13T07:43:08;103463.03;;;7.61;63.12
70976;BME280;58635;51.198;6.010;2023-02-13T07:45:33;103446.34;;;7.54;63.14
70976;BME280;58635;51.198;6.010;2023-02-13T07:47:58;103473.00;;;7.66;63.07
70976;BME280;58635;51.198;6.010;2023-02-13T07:50:24;103465.72;;;7.59;62.93
70976;BME280;58635;51.198;6.010;2023-02-13T07:52:54;103458.69;;;7.61;63.07
70976;BME280;58635;51.198;6.010;2023-02-13T07:55:20;103456.13;;;7.61;63.02
70976;BME280;58635;51.198;6.010;2023-02-13T07:57:45;103471.25;;;7.66;63.37
70976;BME280;58635;51.198;6.010;2023-02-13T08:00:11;103472.69;;;7.70;63.11
70976;BME280;58635;51.198;6.010;2023-02-13T08:02:37;103472.06;;;7.67;62.72
70976;BME280;58635;51.198;6.010;2023-02-13T08:05:03;103475.97;;;7.72;63.07
70976;BME280;58635;51.198;6.010;2023-02-13T08:07:28;103479.38;;;7.73;62.83
70976;BME280;58635;51.198;6.010;2023-02-13T08:09:54;103469.47;;;7.67;62.57
70976;BME280;58635;51.198;6.010;2023-02-13T08:12:38;103492.72;;;7.78;62.95
70976;BME280;58635;51.198;6.010;2023-02-13T08:15:05;103469.72;;;7.63;62.87
70976;BME280;58635;51.198;6.010;2023-02-13T08:17:30;103491.69;;;7.80;62.96
70976;BME280;58635;51.198;6.010;2023-02-13T08:19:59;103481.00;;;7.74;62.79
70976;BME280;58635;51.198;6.010;2023-02-13T08:22:27;103486.53;;;7.80;62.98
70976;BME280;58635;51.198;6.010;2023-02-13T08:24:55;103480.78;;;7.77;63.13
70976;BME280;58635;51.198;6.010;2023-02-13T08:27:26;103472.34;;;7.75;62.98
70976;BME280;58635;51.198;6.010;2023-02-13T08:29:55;103497.72;;;7.92;62.92
70976;BME280;58635;51.198;6.010;2023-02-13T08:32:22;103476.34;;;7.79;63.13
70976;BME280;58635;51.198;6.010;2023-02-13T08:34:47;103482.94;;;7.83;63.21
70976;BME280;58635;51.198;6.010;2023-02-13T08:37:13;103505.84;;;7.99;63.07
70976;BME280;58635;51.198;6.010;2023-02-13T08:39:39;103498.84;;;8.01;63.45
70976;BME280;58635;51.198;6.010;2023-02-13T08:42:04;103506.03;;;8.08;63.81
70976;BME280;58635;51.198;6.010;2023-02-13T08:44:30;103502.81;;;8.05;63.61
70976;BME280;58635;51.198;6.010;2023-02-13T08:46:56;103507.31;;;8.14;63.42
70976;BME280;58635;51.198;6.010;2023-02-13T08:49:21;103509.91;;;8.14;63.57
70976;BME280;58635;51.198;6.010;2023-02-13T08:51:48;103514.88;;;8.17;63.63
70976;BME280;58635;51.198;6.010;2023-02-13T08:54:14;103504.44;;;8.18;63.72
70976;BME280;58635;51.198;6.010;2023-02-13T08:56:45;103483.66;;;8.09;63.62
70976;BME280;58635;51.198;6.010;2023-02-13T08:59:10;103496.69;;;8.18;63.77
70976;BME280;58635;51.198;6.010;2023-02-13T09:01:42;103481.44;;;8.15;63.93
70976;BME280;58635;51.198;6.010;2023-02-13T09:04:07;103510.22;;;8.33;64.25
70976;BME280;58635;51.198;6.010;2023-02-13T09:06:33;103486.88;;;8.24;64.28
70976;BME280;58635;51.198;6.010;2023-02-13T09:08:58;103493.75;;;8.36;64.12
70976;BME280;58635;51.198;6.010;2023-02-13T09:11:29;103480.97;;;8.34;64.07
70976;BME280;58635;51.198;6.010;2023-02-13T09:13:54;103500.25;;;8.53;64.09
70976;BME280;58635;51.198;6.010;2023-02-13T09:16:20;103515.97;;;8.61;64.33
70976;BME280;58635;51.198;6.010;2023-02-13T09:18:49;103500.72;;;8.58;64.25
70976;BME280;58635;51.198;6.010;2023-02-13T09:21:16;103520.22;;;8.73;64.43
70976;BME280;58635;51.198;6.010;2023-02-13T09:23:44;103518.13;;;8.78;64.55
70976;BME280;58635;51.198;6.010;2023-02-13T09:26:11;103520.25;;;8.84;64.39
70976;BME280;58635;51.198;6.010;2023-02-13T09:28:41;103521.56;;;8.90;64.78
70976;BME280;58635;51.198;6.010;2023-02-13T09:31:07;103522.03;;;8.95;64.43
70976;BME280;58635;51.198;6.010;2023-02-13T09:33:36;103514.03;;;8.98;64.67
70976;BME280;58635;51.198;6.010;2023-02-13T09:36:04;103505.47;;;8.97;64.71
70976;BME280;58635;51.198;6.010;2023-02-13T09:38:30;103522.28;;;9.14;64.71
70976;BME280;58635;51.198;6.010;2023-02-13T09:40:59;103483.69;;;9.01;64.71
70976;BME280;58635;51.198;6.010;2023-02-13T09:43:33;103519.22;;;9.31;64.70
70976;BME280;58635;51.198;6.010;2023-02-13T09:46:11;103487.41;;;9.20;64.70
70976;BME280;58635;51.198;6.010;2023-02-13T09:48:47;103519.09;;;9.44;64.54
70976;BME280;58635;51.198;6.010;2023-02-13T09:51:19;103516.19;;;9.49;64.48
70976;BME280;58635;51.198;6.010;2023-02-13T09:53:55;103489.66;;;9.35;64.55
70976;BME280;58635;51.198;6.010;2023-02-13T09:59:52;103514.28;;;9.62;64.39
70976;BME280;58635;51.198;6.010;2023-02-13T10:13:21;103506.53;;;9.94;64.41
70976;BME280;58635;51.198;6.010;2023-02-13T10:16:09;103507.97;;;9.98;64.50
70976;BME280;58635;51.198;6.010;2023-02-13T10:21:37;103511.00;;;10.03;64.32
70976;BME280;58635;51.198;6.010;2023-02-13T10:26:46;103518.59;;;10.16;64.33
70976;BME280;58635;51.198;6.010;2023-02-13T10:29:22;103518.00;;;10.23;64.32
70976;BME280;58635;51.198;6.010;2023-02-13T10:32:13;103516.81;;;10.28;64.31
70976;BME280;58635;51.198;6.010;2023-02-13T10:34:45;103507.06;;;10.31;64.33
70976;BME280;58635;51.198;6.010;2023-02-13T10:37:20;103495.88;;;10.31;64.08
70976;BME280;58635;51.198;6.010;2023-02-13T10:39:51;103497.94;;;10.37;64.11
70976;BME280;58635;51.198;6.010;2023-02-13T10:42:21;103508.00;;;10.51;64.06
70976;BME280;58635;51.198;6.010;2023-02-13T10:47:50;103499.34;;;10.62;64.06
70976;BME280;58635;51.198;6.010;2023-02-13T10:53:27;103496.00;;;10.71;63.87
70976;BME280;58635;51.198;6.010;2023-02-13T10:56:11;103497.13;;;10.78;63.77
70976;BME280;58635;51.198;6.010;2023-02-13T11:04:43;103489.72;;;10.94;63.46
70976;BME280;58635;51.198;6.010;2023-02-13T11:07:13;103491.22;;;10.97;63.53
70976;BME280;58635;51.198;6.010;2023-02-13T11:09:41;103489.50;;;11.07;63.55
70976;BME280;58635;51.198;6.010;2023-02-13T11:12:29;103491.59;;;11.13;63.43
70976;BME280;58635;51.198;6.010;2023-02-13T11:14:57;103481.91;;;11.15;63.29
70976;BME280;58635;51.198;6.010;2023-02-13T11:17:30;103469.78;;;11.16;63.34
70976;BME280;58635;51.198;6.010;2023-02-13T11:22:54;103469.53;;;11.28;63.09
70976;BME280;58635;51.198;6.010;2023-02-13T11:25:26;103477.88;;;11.41;62.80
70976;BME280;58635;51.198;6.010;2023-02-13T11:28:14;103461.09;;;11.46;62.80
70976;BME280;58635;51.198;6.010;2023-02-13T11:30:42;103458.00;;;11.52;62.59
70976;BME280;58635;51.198;6.010;2023-02-13T11:35:44;103449.28;;;11.62;62.32
70976;BME280;58635;51.198;6.010;2023-02-13T11:40:35;103452.72;;;11.73;62.05
70976;BME280;58635;51.198;6.010;2023-02-13T11:43:04;103446.03;;;11.80;62.09
70976;BME280;58635;51.198;6.010;2023-02-13T11:45:31;103447.28;;;11.85;61.94
70976;BME280;58635;51.198;6.010;2023-02-13T11:47:57;103444.28;;;11.90;61.85
70976;BME280;58635;51.198;6.010;2023-02-13T11:50:31;103451.38;;;11.97;61.56
70976;BME280;58635;51.198;6.010;2023-02-13T11:53:02;103443.03;;;12.04;61.41
70976;BME280;58635;51.198;6.010;2023-02-13T11:55:34;103436.63;;;12.08;61.16
70976;BME280;58635;51.198;6.010;2023-02-13T12:00:41;103431.00;;;12.22;61.15
70976;BME280;58635;51.198;6.010;2023-02-13T12:08:35;103424.25;;;12.39;60.58
70976;BME280;58635;51.198;6.010;2023-02-13T12:13:44;103412.91;;;12.49;60.23
70976;BME280;58635;51.198;6.010;2023-02-13T12:16:16;103404.59;;;12.46;60.14
70976;BME280;58635;51.198;6.010;2023-02-13T12:18:47;103410.94;;;12.61;60.09
70976;BME280;58635;51.198;6.010;2023-02-13T12:21:31;103416.25;;;12.69;60.13
70976;BME280;58635;51.198;6.010;2023-02-13T12:24:10;103405.94;;;12.77;59.94
70976;BME280;58635;51.198;6.010;2023-02-13T12:26:43;103394.47;;;12.80;59.83
70976;BME280;58635;51.198;6.010;2023-02-13T12:37:31;103403.03;;;13.17;59.33
70976;BME280;58635;51.198;6.010;2023-02-13T12:45:48;103389.53;;;13.32;59.05
70976;BME280;58635;51.198;6.010;2023-02-13T12:51:11;103385.69;;;13.54;58.54
70976;BME280;58635;51.198;6.010;2023-02-13T12:54:01;103387.69;;;13.60;58.41
70976;BME280;58635;51.198;6.010;2023-02-13T12:59:29;103376.78;;;13.74;57.73
70976;BME280;58635;51.198;6.010;2023-02-13T13:15:39;103358.22;;;14.21;55.57
70976;BME280;58635;51.198;6.010;2023-02-13T13:21:07;103371.91;;;14.31;55.00
70976;BME280;58635;51.198;6.010;2023-02-13T13:23:41;103357.81;;;14.33;54.62
70976;BME280;58635;51.198;6.010;2023-02-13T13:26:48;103361.56;;;14.39;54.31
70976;BME280;58635;51.198;6.010;2023-02-13T13:29:22;103351.63;;;14.43;54.14
70976;BME280;58635;51.198;6.010;2023-02-13T13:31:55;103345.84;;;14.49;54.05
70976;BME280;58635;51.198;6.010;2023-02-13T13:34:23;103341.47;;;14.49;53.47
70976;BME280;58635;51.198;6.010;2023-02-13T13:36:59;103337.38;;;14.55;52.96
70976;BME280;58635;51.198;6.010;2023-02-13T13:39:48;103337.28;;;14.65;53.10
70976;BME280;58635;51.198;6.010;2023-02-13T13:50:38;103335.72;;;14.88;52.69
70976;BME280;58635;51.198;6.010;2023-02-13T13:53:16;103332.66;;;14.93;52.32
70976;BME280;58635;51.198;6.010;2023-02-13T13:58:42;103332.47;;;15.02;51.88
70976;BME280;58635;51.198;6.010;2023-02-13T14:03:44;103329.41;;;15.07;51.74
70976;BME280;58635;51.198;6.010;2023-02-13T14:06:12;103322.41;;;15.07;51.72
70976;BME280;58635;51.198;6.010;2023-02-13T14:11:30;103325.97;;;15.14;51.41
70976;BME280;58635;51.198;6.010;2023-02-13T14:13:56;103320.94;;;15.13;51.64
70976;BME280;58635;51.198;6.010;2023-02-13T14:16:43;103315.41;;;15.08;51.18
70976;BME280;58635;51.198;6.010;2023-02-13T14:21:53;103314.09;;;15.12;51.50
70976;BME280;58635;51.198;6.010;2023-02-13T14:24:21;103312.28;;;15.12;51.35
70976;BME280;58635;51.198;6.010;2023-02-13T14:26:51;103302.84;;;15.11;51.46
70976;BME280;58635;51.198;6.010;2023-02-13T14:29:26;103312.81;;;15.16;51.11
70976;BME280;58635;51.198;6.010;2023-02-13T14:31:58;103307.59;;;15.16;51.25
70976;BME280;58635;51.198;6.010;2023-02-13T14:34:29;103307.25;;;15.11;51.13
70976;BME280;58635;51.198;6.010;2023-02-13T14:42:43;103304.16;;;15.07;51.30
70976;BME280;58635;51.198;6.010;2023-02-13T14:45:15;103293.56;;;15.09;51.28
70976;BME280;58635;51.198;6.010;2023-02-13T14:47:51;103304.00;;;15.09;51.31
70976;BME280;58635;51.198;6.010;2023-02-13T14:50:26;103289.66;;;15.05;51.49
70976;BME280;58635;51.198;6.010;2023-02-13T14:52:52;103300.72;;;14.99;52.11
70976;BME280;58635;51.198;6.010;2023-02-13T14:55:55;103295.34;;;15.00;51.88
70976;BME280;58635;51.198;6.010;2023-02-13T14:58:22;103290.13;;;15.00;51.59
70976;BME280;58635;51.198;6.010;2023-02-13T15:00:53;103293.72;;;14.99;51.54
70976;BME280;58635;51.198;6.010;2023-02-13T15:06:02;103295.34;;;15.00;51.54
70976;BME280;58635;51.198;6.010;2023-02-13T15:08:45;103292.41;;;14.95;51.47
70976;BME280;58635;51.198;6.010;2023-02-13T15:11:12;103294.03;;;14.96;51.66
70976;BME280;58635;51.198;6.010;2023-02-13T15:14:21;103288.34;;;15.01;51.36
70976;BME280;58635;51.198;6.010;2023-02-13T15:16:54;103277.59;;;14.96;51.41
70976;BME280;58635;51.198;6.010;2023-02-13T15:19:22;103287.53;;;15.00;51.47
70976;BME280;58635;51.198;6.010;2023-02-13T15:22:00;103281.81;;;14.97;51.32
70976;BME280;58635;51.198;6.010;2023-02-13T15:24:43;103284.44;;;14.97;51.32
70976;BME280;58635;51.198;6.010;2023-02-13T15:27:27;103286.22;;;14.96;51.23
70976;BME280;58635;51.198;6.010;2023-02-13T15:29:57;103289.00;;;14.95;51.34
70976;BME280;58635;51.198;6.010;2023-02-13T15:32:34;103282.16;;;14.94;51.43
70976;BME280;58635;51.198;6.010;2023-02-13T15:35:16;103276.25;;;14.91;51.58
70976;BME280;58635;51.198;6.010;2023-02-13T15:37:46;103263.91;;;14.85;51.75
70976;BME280;58635;51.198;6.010;2023-02-13T15:40:26;103249.56;;;14.73;51.73
70976;BME280;58635;51.198;6.010;2023-02-13T15:42:52;103276.44;;;14.90;51.79
70976;BME280;58635;51.198;6.010;2023-02-13T15:45:20;103276.13;;;14.93;51.81
70976;BME280;58635;51.198;6.010;2023-02-13T15:47:47;103275.94;;;14.86;51.91
70976;BME280;58635;51.198;6.010;2023-02-13T15:52:54;103272.84;;;14.91;52.15
70976;BME280;58635;51.198;6.010;2023-02-13T15:55:33;103258.38;;;14.80;52.08
70976;BME280;58635;51.198;6.010;2023-02-13T15:58:03;103270.56;;;14.88;52.28
70976;BME280;58635;51.198;6.010;2023-02-13T16:00:35;103259.66;;;14.84;52.48
70976;BME280;58635;51.198;6.010;2023-02-13T16:03:03;103267.00;;;14.81;52.40
70976;BME280;58635;51.198;6.010;2023-02-13T16:05:36;103269.09;;;14.85;52.42